createdAt,value
2018-06-05T00:04:02.899Z,16.83
2018-06-05T00:09:06.615Z,16.74
2018-06-05T00:14:08.768Z,16.65
2018-06-05T00:19:10.926Z,16.56
2018-06-05T00:24:13.075Z,16.63
2018-06-05T00:29:15.215Z,16.67
2018-06-05T00:34:17.407Z,16.77
2018-06-05T00:39:19.790Z,16.69
2018-06-05T00:44:21.945Z,16.75
2018-06-05T00:49:24.105Z,16.79
2018-06-05T00:54:26.296Z,16.83
2018-06-05T00:59:35.463Z,16.87
2018-06-05T01:04:37.616Z,16.78
2018-06-05T01:09:39.803Z,16.62
2018-06-05T01:14:41.966Z,16.62
2018-06-05T01:19:44.084Z,16.67
2018-06-05T01:24:46.236Z,16.73
2018-06-05T01:29:48.384Z,16.78
2018-06-05T01:34:50.541Z,16.81
2018-06-05T01:39:52.705Z,16.76
2018-06-05T01:44:54.894Z,16.78
2018-06-05T01:49:57.032Z,16.78
2018-06-05T01:54:59.204Z,16.76
2018-06-05T02:00:01.333Z,16.74
2018-06-05T02:05:03.530Z,16.76
2018-06-05T02:10:05.663Z,16.66
2018-06-05T02:15:08.043Z,16.66
2018-06-05T02:20:10.179Z,16.63
2018-06-05T02:25:12.322Z,16.61
2018-06-05T02:30:14.467Z,16.57
2018-06-05T02:35:16.614Z,16.46
2018-06-05T02:40:18.798Z,16.47
2018-06-05T02:45:20.939Z,16.57
2018-06-05T02:50:23.081Z,16.55
2018-06-05T02:55:25.292Z,16.65
2018-06-05T03:00:27.407Z,16.49
2018-06-05T03:05:29.570Z,16.51
2018-06-05T03:10:31.717Z,16.50
2018-06-05T03:15:33.862Z,16.57
2018-06-05T03:20:35.985Z,16.47
2018-06-05T03:25:38.267Z,16.57
2018-06-05T03:30:40.375Z,16.59
2018-06-05T03:35:42.492Z,16.58
2018-06-05T03:40:44.670Z,16.63
2018-06-05T03:45:46.891Z,16.77
2018-06-05T03:50:48.998Z,16.59
2018-06-05T03:55:51.199Z,16.73
2018-06-05T04:00:53.340Z,16.79
2018-06-05T04:05:55.478Z,16.83
2018-06-05T04:10:57.620Z,16.76
2018-06-05T04:15:59.762Z,16.80
2018-06-05T04:21:01.910Z,16.92
2018-06-05T04:26:04.079Z,16.96
2018-06-05T04:31:06.237Z,16.86
2018-06-05T04:36:08.434Z,16.90
2018-06-05T04:41:10.628Z,16.84
2018-06-05T04:46:12.819Z,16.86
2018-06-05T04:51:15.040Z,16.94
2018-06-05T04:56:17.316Z,17.01
2018-06-05T05:01:19.500Z,16.99
2018-06-05T05:06:21.669Z,16.99
2018-06-05T05:11:23.844Z,17.07
2018-06-05T05:16:26.012Z,17.03
2018-06-05T05:21:28.203Z,17.13
2018-06-05T05:26:30.352Z,17.19
2018-06-05T05:31:32.536Z,17.26
2018-06-05T05:36:34.731Z,17.38
2018-06-05T05:41:36.952Z,17.32
2018-06-05T05:46:39.133Z,17.22
2018-06-05T05:51:41.264Z,17.36
2018-06-05T05:56:43.509Z,17.65
2018-06-05T06:01:45.730Z,17.91
2018-06-05T06:06:47.871Z,18.50
2018-06-05T06:11:50.050Z,18.70
2018-06-05T06:16:52.252Z,18.84
2018-06-05T06:21:54.433Z,18.85
2018-06-05T06:26:56.992Z,18.95
2018-06-05T06:31:59.147Z,19.14
2018-06-05T06:37:01.336Z,19.26
2018-06-05T06:42:03.540Z,19.23
2018-06-05T06:47:05.696Z,19.11
2018-06-05T06:52:07.895Z,19.00
2018-06-05T06:57:10.075Z,18.81
2018-06-05T07:02:12.261Z,18.86
2018-06-05T07:07:14.445Z,18.53
2018-06-05T07:12:16.669Z,18.69
2018-06-05T07:17:18.807Z,18.93
2018-06-05T07:22:20.970Z,18.89
2018-06-05T07:27:23.107Z,18.97
2018-06-05T07:32:25.263Z,19.14
2018-06-05T07:37:27.437Z,19.48
2018-06-05T07:42:29.623Z,19.50
2018-06-05T07:47:31.817Z,19.50
2018-06-05T07:52:33.975Z,19.49
2018-06-05T07:57:36.159Z,19.63
2018-06-05T08:02:38.330Z,19.96
2018-06-05T08:07:40.475Z,20.14
2018-06-05T08:12:42.731Z,19.96
2018-06-05T08:17:44.891Z,19.54
2018-06-05T08:22:53.389Z,19.64
2018-06-05T08:27:55.518Z,20.09
2018-06-05T08:32:57.723Z,20.25
2018-06-05T08:37:59.943Z,20.31
2018-06-05T08:43:02.149Z,20.47
2018-06-05T08:48:04.433Z,20.56
2018-06-05T08:53:06.627Z,20.81
2018-06-05T08:58:08.895Z,20.87
2018-06-05T09:03:11.097Z,20.99
2018-06-05T09:08:13.307Z,21.22
2018-06-05T09:13:15.478Z,21.30
2018-06-05T09:18:17.745Z,21.43
2018-06-05T09:23:19.926Z,21.26
2018-06-05T09:28:22.159Z,21.24
2018-06-05T09:33:24.412Z,21.51
2018-06-05T09:38:26.636Z,21.63
2018-06-05T09:43:28.840Z,21.58
2018-06-05T09:48:31.013Z,21.68
2018-06-05T09:53:33.216Z,21.88
2018-06-05T09:58:35.618Z,21.94
2018-06-05T10:03:37.643Z,22.05
2018-06-05T10:08:40.109Z,22.32
2018-06-05T10:13:42.290Z,22.31
2018-06-05T10:18:44.509Z,22.37
2018-06-05T10:23:46.692Z,22.58
2018-06-05T10:28:48.869Z,22.70
2018-06-05T10:33:51.055Z,22.73
2018-06-05T10:38:53.275Z,22.98
2018-06-05T10:43:55.473Z,23.30
2018-06-05T10:48:57.651Z,23.39
2018-06-05T10:53:59.838Z,23.60
2018-06-05T10:59:02.080Z,23.83
2018-06-05T11:04:04.251Z,23.93
2018-06-05T11:09:07.269Z,24.19
2018-06-05T11:14:09.447Z,24.42
2018-06-05T11:19:11.610Z,24.79
2018-06-05T11:24:13.874Z,25.33
2018-06-05T11:29:16.048Z,25.50
2018-06-05T11:34:18.192Z,25.86
2018-06-05T11:39:20.799Z,25.99
2018-06-05T11:44:23.012Z,26.48
2018-06-05T11:49:25.215Z,26.19
2018-06-05T11:54:27.378Z,26.58
2018-06-05T11:59:29.594Z,26.79
2018-06-05T12:04:31.804Z,26.94
2018-06-05T12:09:34.013Z,27.15
2018-06-05T12:14:53.252Z,27.23
2018-06-05T12:19:55.745Z,27.54
2018-06-05T12:24:57.905Z,27.34
2018-06-05T12:30:00.040Z,27.72
2018-06-05T12:35:02.218Z,28.27
2018-06-05T12:40:04.502Z,28.09
2018-06-05T12:45:06.683Z,28.34
2018-06-05T12:50:08.860Z,27.77
2018-06-05T12:55:11.041Z,27.99
2018-06-05T13:00:13.272Z,28.24
2018-06-05T13:05:16.276Z,28.91
2018-06-05T13:10:18.443Z,28.44
2018-06-05T13:15:20.592Z,28.81
2018-06-05T13:20:22.815Z,28.86
2018-06-05T13:25:25.046Z,28.88
2018-06-05T13:30:27.265Z,28.98
2018-06-05T13:35:29.433Z,29.16
2018-06-05T13:40:31.661Z,29.57
2018-06-05T13:45:33.853Z,29.68
2018-06-05T13:50:36.024Z,29.66
2018-06-05T13:55:38.192Z,29.58
2018-06-05T14:00:40.388Z,30.10
2018-06-05T14:05:42.541Z,30.26
2018-06-05T14:10:44.792Z,30.31
2018-06-05T14:15:47.001Z,30.44
2018-06-05T14:20:49.205Z,29.31
2018-06-05T14:25:51.428Z,29.72
2018-06-05T14:30:53.635Z,29.96
2018-06-05T14:35:55.829Z,30.61
2018-06-05T14:40:58.083Z,30.83
2018-06-05T14:46:00.277Z,31.03
2018-06-05T14:51:02.521Z,31.16
2018-06-05T14:56:04.764Z,30.81
2018-06-05T15:01:06.949Z,30.83
2018-06-05T15:06:09.193Z,30.64
2018-06-05T15:11:11.375Z,29.99
2018-06-05T15:16:13.618Z,30.19
2018-06-05T15:21:15.810Z,30.22
2018-06-05T15:26:18.110Z,30.11
2018-06-05T15:31:20.294Z,29.74
2018-06-05T15:36:22.485Z,30.45
2018-06-05T15:41:24.727Z,30.38
2018-06-05T15:46:26.965Z,30.42
2018-06-05T15:51:29.134Z,30.58
2018-06-05T15:56:31.327Z,30.46
2018-06-05T16:01:33.732Z,30.42
2018-06-05T16:06:35.968Z,29.44
2018-06-05T16:11:38.152Z,30.00
2018-06-05T16:16:40.381Z,29.52
2018-06-05T16:21:42.624Z,29.47
2018-06-05T16:26:44.846Z,29.45
2018-06-05T16:31:47.054Z,29.62
2018-06-05T16:36:49.291Z,29.68
2018-06-05T16:41:51.506Z,29.66
2018-06-05T16:46:53.747Z,29.51
2018-06-05T16:51:55.975Z,29.12
2018-06-05T16:56:58.174Z,28.96
2018-06-05T17:02:00.371Z,28.57
2018-06-05T17:07:02.596Z,28.43
2018-06-05T17:12:04.823Z,28.47
2018-06-05T17:17:07.038Z,28.41
2018-06-05T17:22:09.329Z,27.73
2018-06-05T17:27:11.681Z,27.43
2018-06-05T17:32:13.837Z,27.61
2018-06-05T17:37:16.037Z,27.59
2018-06-05T17:42:18.225Z,27.40
2018-06-05T17:47:20.406Z,26.78
2018-06-05T17:52:22.609Z,26.77
2018-06-05T17:57:24.801Z,26.06
2018-06-05T18:02:27.064Z,25.83
2018-06-05T18:07:29.276Z,25.91
2018-06-05T18:12:31.497Z,25.86
2018-06-05T18:17:33.687Z,25.65
2018-06-05T18:22:35.987Z,25.19
2018-06-05T18:27:38.203Z,24.76
2018-06-05T18:32:40.424Z,24.21
2018-06-05T18:37:42.653Z,23.82
2018-06-05T18:42:44.879Z,23.67
2018-06-05T18:47:47.177Z,23.64
2018-06-05T18:52:49.458Z,23.17
2018-06-05T18:57:51.672Z,22.94
2018-06-05T19:02:53.967Z,22.91
2018-06-05T19:07:56.284Z,22.82
2018-06-05T19:12:58.576Z,22.93
2018-06-05T19:18:00.866Z,22.85
2018-06-05T19:23:03.218Z,22.86
2018-06-05T19:28:05.760Z,22.81
2018-06-05T19:33:08.074Z,22.56
2018-06-05T19:38:10.347Z,22.57
2018-06-05T19:43:12.635Z,22.53
2018-06-05T19:48:14.921Z,22.37
2018-06-05T19:53:17.180Z,22.12
2018-06-05T19:58:19.507Z,22.04
2018-06-05T20:03:21.815Z,21.90
2018-06-05T20:08:24.187Z,21.93
2018-06-05T20:13:26.504Z,21.88
2018-06-05T20:18:28.799Z,21.90
2018-06-05T20:23:31.111Z,21.73
2018-06-05T20:28:33.349Z,21.69
2018-06-05T20:33:35.578Z,21.68
2018-06-05T20:38:37.868Z,21.60
2018-06-05T20:43:40.098Z,21.53
2018-06-05T20:48:42.389Z,21.36
2018-06-05T20:53:44.599Z,21.25
2018-06-05T20:58:46.867Z,21.16
2018-06-05T21:03:49.422Z,21.20
2018-06-05T21:08:51.628Z,21.24
2018-06-05T21:13:53.888Z,21.16
2018-06-05T21:18:56.117Z,20.85
2018-06-05T21:23:58.387Z,20.75
2018-06-05T21:29:01.109Z,20.68
2018-06-05T21:34:03.369Z,20.79
2018-06-05T21:39:08.083Z,20.76
2018-06-05T21:44:10.312Z,20.69
2018-06-05T21:49:19.190Z,20.70
2018-06-05T21:54:21.441Z,20.67
2018-06-05T21:59:23.635Z,20.65
2018-06-05T22:04:25.930Z,20.59
2018-06-05T22:09:28.140Z,19.94
2018-06-05T22:19:52.921Z,20.42
2018-06-05T22:24:55.188Z,20.41
2018-06-05T22:29:57.377Z,20.37
2018-06-05T22:34:59.555Z,20.30
2018-06-05T22:40:01.719Z,20.20
2018-06-05T22:45:03.973Z,20.11
2018-06-05T22:50:06.236Z,19.96
2018-06-05T22:55:08.409Z,19.91
2018-06-05T23:00:10.608Z,19.84
2018-06-05T23:05:13.061Z,19.82
2018-06-05T23:10:15.356Z,19.70
2018-06-05T23:15:17.578Z,19.63
2018-06-05T23:20:20.143Z,19.59
2018-06-05T23:25:22.325Z,19.57
2018-06-05T23:30:24.501Z,19.48
2018-06-05T23:35:26.680Z,19.43
2018-06-05T23:40:28.863Z,19.42
2018-06-05T23:45:31.043Z,19.38
2018-06-05T23:50:33.229Z,19.34
2018-06-05T23:55:35.376Z,19.31
